Time;durP1;ratioP1;P1;durP2;ratioP2;P2;SDS_P1;SDS_P2;PMS_P1;PMS_P2;Temp;Humidity;BMP_temperature;BMP_pressure;BME280_temperature;BME280_humidity;BME280_pressure;Samples;Min_cycle;Max_cycle;Signal;HPM_P1;HPM_P2
2022/08/18 00:02:14;;;;;;;28.40;8.43;;;;;;;;;;6305583;22;20025;-88
2022/08/18 00:04:43;;;;;;;25.42;8.27;;;;;;;;;;6275821;22;20007;-87
2022/08/18 00:07:11;;;;;;;27.48;8.77;;;;;;;;;;6276059;22;20026;-87
2022/08/18 00:09:38;;;;;;;33.88;8.82;;;;;;;;;;6276438;22;20003;-87
2022/08/18 00:12:07;;;;;;;37.10;10.13;;;;;;;;;;6274845;22;20438;-87
2022/08/18 00:14:33;;;;;;;30.17;9.43;;;;;;;;;;6274157;22;20035;-88
2022/08/18 00:16:59;;;;;;;24.85;8.45;;;;;;;;;;6274686;22;20007;-87
2022/08/18 00:19:26;;;;;;;25.65;8.65;;;;;;;;;;6274351;22;20008;-88
2022/08/18 00:21:52;;;;;;;37.08;9.63;;;;;;;;;;6276700;22;20007;-88
2022/08/18 00:24:24;;;;;;;35.92;8.77;;;;;;;;;;6273923;22;20065;-89
2022/08/18 00:26:51;;;;;;;31.08;8.35;;;;;;;;;;6303912;22;20011;-88
2022/08/18 00:29:23;;;;;;;29.35;8.48;;;;;;;;;;6276359;22;20431;-88
2022/08/18 00:32:02;;;;;;;29.90;8.65;;;;;;;;;;6271858;22;20026;-87
2022/08/18 00:34:28;;;;;;;34.28;9.05;;;;;;;;;;6270683;22;20007;-87
2022/08/18 00:36:54;;;;;;;36.25;8.43;;;;;;;;;;6272552;22;20297;-88
2022/08/18 00:39:20;;;;;;;29.77;8.30;;;;;;;;;;6272533;22;20008;-88
2022/08/18 00:41:46;;;;;;;27.85;8.30;;;;;;;;;;6269332;22;20023;-89
2022/08/18 00:44:15;;;;;;;37.30;7.95;;;;;;;;;;6271386;22;20014;-88
2022/08/18 00:46:41;;;;;;;29.17;8.63;;;;;;;;;;6268841;22;20014;-88
2022/08/18 00:49:07;;;;;;;28.17;8.70;;;;;;;;;;6271684;22;20011;-89
2022/08/18 00:51:37;;;;;;;25.15;8.82;;;;;;;;;;6269160;22;20007;-88
2022/08/18 00:54:09;;;;;;;26.15;8.13;;;;;;;;;;6272234;22;20037;-88
2022/08/18 00:56:38;;;;;;;22.63;8.52;;;;;;;;;;6269929;22;20359;-88
2022/08/18 00:59:08;;;;;;;41.60;8.82;;;;;;;;;;6271018;22;20019;-88
2022/08/18 01:01:34;;;;;;;24.35;8.57;;;;;;;;;;6272160;22;20011;-88
2022/08/18 01:04:14;;;;;;;32.25;9.02;;;;;;;;;;6270008;22;20008;-88
2022/08/18 01:06:54;;;;;;;25.50;8.25;;;;;;;;;;6271901;22;20007;-88
2022/08/18 01:09:21;;;;;;;28.58;8.60;;;;;;;;;;6270590;22;20007;-88
2022/08/18 01:11:47;;;;;;;37.65;9.65;;;;;;;;;;6270165;22;20031;-88
2022/08/18 01:14:17;;;;;;;32.63;10.38;;;;;;;;;;6270359;22;20000;-88
2022/08/18 01:22:21;;;;;;;40.22;9.35;;;;;;;;;;6270790;22;20153;-87
2022/08/18 01:27:34;;;;;;;30.08;9.68;;;;;;;;;;6271705;22;20069;-88
2022/08/18 01:30:03;;;;;;;35.70;8.77;;;;;;;;;;6269340;22;19999;-88
2022/08/18 01:32:29;;;;;;;39.40;11.65;;;;;;;;;;6269948;22;20016;-88
2022/08/18 01:34:55;;;;;;;32.70;9.75;;;;;;;;;;6267910;22;20035;-88
2022/08/18 01:37:23;;;;;;;46.05;10.15;;;;;;;;;;6268772;22;20007;-87
2022/08/18 01:39:49;;;;;;;38.22;9.80;;;;;;;;;;6267533;22;20011;-87
2022/08/18 01:42:16;;;;;;;45.42;10.38;;;;;;;;;;6270770;22;20427;-88
2022/08/18 01:44:42;;;;;;;44.42;10.65;;;;;;;;;;6269163;22;20012;-88
2022/08/18 01:47:09;;;;;;;35.80;10.27;;;;;;;;;;6270225;22;20003;-88
2022/08/18 01:49:36;;;;;;;40.35;9.77;;;;;;;;;;6270189;22;20649;-88
2022/08/18 01:52:05;;;;;;;34.83;10.43;;;;;;;;;;6271999;22;20027;-88
2022/08/18 01:54:31;;;;;;;40.15;11.00;;;;;;;;;;6271970;22;20599;-90
2022/08/18 01:57:01;;;;;;;54.42;12.38;;;;;;;;;;6271004;22;20000;-89
2022/08/18 01:59:27;;;;;;;38.20;9.73;;;;;;;;;;6272797;22;20012;-88
2022/08/18 02:01:54;;;;;;;43.85;12.15;;;;;;;;;;6273320;22;20008;-88
2022/08/18 02:04:26;;;;;;;36.80;10.40;;;;;;;;;;6271444;22;20035;-87
2022/08/18 02:06:52;;;;;;;35.38;10.63;;;;;;;;;;6270571;22;20090;-88
2022/08/18 02:09:19;;;;;;;31.65;10.27;;;;;;;;;;6271592;22;20545;-87
2022/08/18 02:11:45;;;;;;;46.33;11.10;;;;;;;;;;6269918;22;20038;-88
2022/08/18 02:14:11;;;;;;;34.28;10.48;;;;;;;;;;6271625;22;20008;-88
2022/08/18 02:16:37;;;;;;;38.97;10.77;;;;;;;;;;6270261;22;20057;-87
2022/08/18 02:19:03;;;;;;;45.30;11.18;;;;;;;;;;6272450;22;20005;-88
2022/08/18 02:21:29;;;;;;;36.90;11.13;;;;;;;;;;6271268;22;20496;-88
2022/08/18 02:23:55;;;;;;;46.15;11.52;;;;;;;;;;6268979;22;20090;-88
2022/08/18 02:26:22;;;;;;;37.05;11.18;;;;;;;;;;6268434;22;20054;-88
2022/08/18 02:28:48;;;;;;;44.97;11.57;;;;;;;;;;6270085;22;20696;-88
2022/08/18 02:31:15;;;;;;;47.80;11.35;;;;;;;;;;6275604;22;20011;-88
2022/08/18 02:33:42;;;;;;;42.72;10.95;;;;;;;;;;6273371;22;20003;-88
2022/08/18 02:36:08;;;;;;;39.70;11.10;;;;;;;;;;6277354;22;19999;-87
2022/08/18 02:38:34;;;;;;;34.88;11.02;;;;;;;;;;6275788;22;20007;-87
2022/08/18 02:41:01;;;;;;;34.17;10.82;;;;;;;;;;6303752;22;20027;-88
2022/08/18 02:43:28;;;;;;;41.30;10.18;;;;;;;;;;6276313;22;20007;-87
2022/08/18 02:45:54;;;;;;;32.45;9.07;;;;;;;;;;6278043;22;20013;-87
2022/08/18 02:50:59;;;;;;;38.45;10.57;;;;;;;;;;6317029;22;20486;-87
2022/08/18 02:53:27;;;;;;;34.03;10.18;;;;;;;;;;6278429;22;20007;-87
2022/08/18 02:55:53;;;;;;;32.65;9.98;;;;;;;;;;6277599;22;20100;-87
2022/08/18 02:58:19;;;;;;;32.65;8.93;;;;;;;;;;6279346;22;20093;-88
2022/08/18 03:00:45;;;;;;;32.33;9.77;;;;;;;;;;6278577;22;20858;-88
2022/08/18 03:03:12;;;;;;;54.03;9.90;;;;;;;;;;6279755;22;20007;-88
2022/08/18 03:05:38;;;;;;;37.88;10.13;;;;;;;;;;6277401;22;20054;-88
2022/08/18 03:08:04;;;;;;;30.15;9.55;;;;;;;;;;6279505;22;20010;-88
2022/08/18 03:10:30;;;;;;;31.73;9.02;;;;;;;;;;6277956;22;20453;-87
2022/08/18 03:12:56;;;;;;;36.00;9.18;;;;;;;;;;6277024;22;20012;-87
2022/08/18 03:15:22;;;;;;;34.38;9.75;;;;;;;;;;6277707;22;20102;-88
2022/08/18 03:17:50;;;;;;;37.13;10.20;;;;;;;;;;6277315;22;20348;-87
2022/08/18 03:20:16;;;;;;;39.65;9.82;;;;;;;;;;6276568;22;20000;-87
2022/08/18 03:22:42;;;;;;;34.25;10.27;;;;;;;;;;6278298;22;20007;-88
2022/08/18 03:25:08;;;;;;;29.38;9.50;;;;;;;;;;6277893;22;20010;-88
2022/08/18 03:27:35;;;;;;;26.63;9.30;;;;;;;;;;6276484;22;20093;-88
2022/08/18 03:30:03;;;;;;;34.05;9.55;;;;;;;;;;6276607;22;20039;-87
2022/08/18 03:32:29;;;;;;;34.45;10.10;;;;;;;;;;6276531;22;20454;-87
2022/08/18 03:34:55;;;;;;;43.42;9.57;;;;;;;;;;6304096;22;20003;-87
2022/08/18 03:37:21;;;;;;;25.83;8.85;;;;;;;;;;6278547;22;19999;-88
2022/08/18 03:39:50;;;;;;;27.35;9.32;;;;;;;;;;6276734;22;20040;-87
2022/08/18 03:42:16;;;;;;;48.13;10.13;;;;;;;;;;6278162;22;20039;-87
2022/08/18 03:44:42;;;;;;;30.65;9.43;;;;;;;;;;6303187;22;20003;-86
2022/08/18 03:47:10;;;;;;;33.88;10.45;;;;;;;;;;6278296;22;20411;-87
2022/08/18 03:49:37;;;;;;;30.58;10.15;;;;;;;;;;6304303;22;20047;-87
2022/08/18 03:52:06;;;;;;;35.70;9.70;;;;;;;;;;6278786;22;20003;-88
2022/08/18 03:54:32;;;;;;;37.78;10.10;;;;;;;;;;6276886;22;20003;-88
2022/08/18 03:56:59;;;;;;;35.15;10.23;;;;;;;;;;6274915;22;20072;-87
2022/08/18 03:59:25;;;;;;;36.08;10.80;;;;;;;;;;6275985;22;20003;-87
2022/08/18 04:01:53;;;;;;;43.60;10.50;;;;;;;;;;6276896;22;20428;-87
2022/08/18 04:04:21;;;;;;;34.85;11.52;;;;;;;;;;6276805;22;21037;-87
2022/08/18 04:06:52;;;;;;;38.42;11.48;;;;;;;;;;6277451;22;20012;-87
2022/08/18 04:09:19;;;;;;;30.02;9.38;;;;;;;;;;6275616;22;20015;-88
2022/08/18 04:11:46;;;;;;;30.80;10.13;;;;;;;;;;6276591;22;20352;-88
2022/08/18 04:14:13;;;;;;;30.75;10.40;;;;;;;;;;6276731;22;20007;-86
2022/08/18 04:16:40;;;;;;;27.42;9.95;;;;;;;;;;6275693;22;20434;-88
2022/08/18 04:19:07;;;;;;;28.70;8.82;;;;;;;;;;6277868;22;20003;-87
2022/08/18 04:21:34;;;;;;;30.25;9.82;;;;;;;;;;6278090;22;20013;-88
2022/08/18 04:24:03;;;;;;;27.08;8.68;;;;;;;;;;6275963;22;20011;-87
2022/08/18 04:26:30;;;;;;;30.58;9.27;;;;;;;;;;6276285;22;20007;-88
2022/08/18 04:28:58;;;;;;;36.78;9.20;;;;;;;;;;6277481;22;20018;-88
2022/08/18 04:31:25;;;;;;;31.38;9.68;;;;;;;;;;6276657;22;20455;-88
2022/08/18 04:33:51;;;;;;;20.92;9.20;;;;;;;;;;6276277;22;20004;-87
2022/08/18 04:36:17;;;;;;;24.25;8.50;;;;;;;;;;6275833;22;20106;-88
2022/08/18 04:38:44;;;;;;;30.23;9.60;;;;;;;;;;6276211;22;20007;-88
2022/08/18 04:41:11;;;;;;;31.48;10.52;;;;;;;;;;6276561;22;20142;-88
2022/08/18 04:43:38;;;;;;;23.83;9.10;;;;;;;;;;6277297;22;20008;-88
2022/08/18 04:46:05;;;;;;;32.53;9.05;;;;;;;;;;6275325;22;20011;-88
2022/08/18 04:48:32;;;;;;;27.83;9.95;;;;;;;;;;6277128;22;20090;-88
2022/08/18 04:51:03;;;;;;;21.80;8.85;;;;;;;;;;6273956;22;20022;-87
2022/08/18 04:53:43;;;;;;;28.92;10.15;;;;;;;;;;6276553;22;20081;-87
2022/08/18 04:56:12;;;;;;;24.27;9.35;;;;;;;;;;6275473;22;20417;-87
2022/08/18 04:58:38;;;;;;;30.73;8.70;;;;;;;;;;6275949;22;20003;-87
2022/08/18 05:01:04;;;;;;;28.00;8.20;;;;;;;;;;6275068;22;20067;-88
2022/08/18 05:03:31;;;;;;;31.83;9.40;;;;;;;;;;6303794;22;20060;-88
2022/08/18 05:05:58;;;;;;;36.08;9.35;;;;;;;;;;6275498;22;20071;-88
2022/08/18 05:08:24;;;;;;;26.45;10.65;;;;;;;;;;6276637;22;20034;-87
2022/08/18 05:10:54;;;;;;;36.72;9.23;;;;;;;;;;6275398;22;20497;-88
2022/08/18 05:13:20;;;;;;;31.73;9.27;;;;;;;;;;6278180;22;20435;-88
2022/08/18 05:15:51;;;;;;;25.27;9.43;;;;;;;;;;6274871;22;20065;-88
2022/08/18 05:18:25;;;;;;;30.75;9.52;;;;;;;;;;6276127;22;20424;-88
2022/08/18 05:20:52;;;;;;;26.90;8.82;;;;;;;;;;6275582;22;20021;-88
2022/08/18 05:23:21;;;;;;;25.70;8.43;;;;;;;;;;6276670;22;20017;-86
2022/08/18 05:25:48;;;;;;;29.25;9.93;;;;;;;;;;6274202;22;20641;-88
2022/08/18 05:28:14;;;;;;;19.35;8.07;;;;;;;;;;6276581;22;20011;-88
2022/08/18 05:30:41;;;;;;;25.20;8.38;;;;;;;;;;6303656;22;20003;-88
2022/08/18 05:33:19;;;;;;;23.67;9.15;;;;;;;;;;6271905;22;20022;-88
2022/08/18 05:35:47;;;;;;;29.63;10.13;;;;;;;;;;6273201;22;20011;-88
2022/08/18 05:38:32;;;;;;;32.08;9.45;;;;;;;;;;6270279;22;20004;-88
2022/08/18 05:41:18;;;;;;;31.80;9.65;;;;;;;;;;6269964;22;20397;-87
2022/08/18 05:43:48;;;;;;;31.42;8.95;;;;;;;;;;6271800;22;20015;-88
2022/08/18 05:46:15;;;;;;;20.23;9.02;;;;;;;;;;6267860;22;20073;-87
2022/08/18 05:48:41;;;;;;;19.00;8.88;;;;;;;;;;6269642;22;20015;-87
2022/08/18 05:51:19;;;;;;;29.98;9.60;;;;;;;;;;6268076;22;20027;-86
2022/08/18 05:56:47;;;;;;;24.25;8.48;;;;;;;;;;6270491;22;20018;-87
2022/08/18 05:59:22;;;;;;;24.92;8.85;;;;;;;;;;6268922;22;20000;-87
2022/08/18 06:01:51;;;;;;;28.95;8.63;;;;;;;;;;6271707;22;20004;-87
2022/08/18 06:04:22;;;;;;;24.65;8.98;;;;;;;;;;6269151;22;20008;-87
2022/08/18 06:06:49;;;;;;;36.55;8.65;;;;;;;;;;6268720;22;20435;-86
2022/08/18 06:09:15;;;;;;;35.17;8.20;;;;;;;;;;6271207;22;20042;-86
2022/08/18 06:11:42;;;;;;;35.45;8.80;;;;;;;;;;6268968;22;20007;-87
2022/08/18 06:14:08;;;;;;;23.27;7.95;;;;;;;;;;6269950;22;20004;-87
2022/08/18 06:16:53;;;;;;;32.50;9.27;;;;;;;;;;6268539;22;20000;-88
2022/08/18 06:19:36;;;;;;;25.02;7.63;;;;;;;;;;6270014;22;20008;-88
2022/08/18 06:22:08;;;;;;;28.10;7.57;;;;;;;;;;6271048;22;20008;-87
2022/08/18 06:24:44;;;;;;;20.63;6.80;;;;;;;;;;6270738;22;20015;-87
2022/08/18 06:27:25;;;;;;;18.27;7.03;;;;;;;;;;6269913;22;20008;-87
2022/08/18 06:30:04;;;;;;;17.05;6.88;;;;;;;;;;6270104;22;20415;-87
2022/08/18 06:32:40;;;;;;;21.42;6.93;;;;;;;;;;6280288;22;20018;-87
2022/08/18 06:35:38;;;;;;;23.05;6.68;;;;;;;;;;6274600;22;20007;-87
2022/08/18 06:41:00;;;;;;;25.25;5.57;;;;;;;;;;6302095;22;20018;-87
2022/08/18 06:43:27;;;;;;;20.00;5.38;;;;;;;;;;6275365;22;20003;-87
2022/08/18 06:45:53;;;;;;;25.40;5.65;;;;;;;;;;6301859;22;20072;-87
2022/08/18 06:48:19;;;;;;;29.40;6.18;;;;;;;;;;6275792;22;20042;-87
2022/08/18 06:50:45;;;;;;;29.65;5.43;;;;;;;;;;6275299;22;20119;-88
2022/08/18 06:53:11;;;;;;;25.10;5.78;;;;;;;;;;6274533;22;20090;-87
2022/08/18 06:55:42;;;;;;;27.38;5.95;;;;;;;;;;6274480;22;19999;-87
2022/08/18 06:58:17;;;;;;;26.52;5.80;;;;;;;;;;6273372;22;20032;-87
2022/08/18 07:00:49;;;;;;;16.88;5.50;;;;;;;;;;6274928;22;20007;-87
2022/08/18 07:03:16;;;;;;;23.30;5.00;;;;;;;;;;6274488;22;20007;-87
2022/08/18 07:06:01;;;;;;;27.42;5.85;;;;;;;;;;6274398;22;20003;-87
2022/08/18 07:08:32;;;;;;;15.40;4.18;;;;;;;;;;6274025;22;20011;-86
2022/08/18 07:11:11;;;;;;;22.60;5.30;;;;;;;;;;6300371;22;20007;-86
2022/08/18 07:13:41;;;;;;;22.67;5.75;;;;;;;;;;6273678;22;20258;-87
2022/08/18 07:16:26;;;;;;;24.30;4.00;;;;;;;;;;6271102;22;20718;-86
2022/08/18 07:18:52;;;;;;;16.67;4.32;;;;;;;;;;6275062;22;20003;-87
2022/08/18 07:21:29;;;;;;;21.10;4.95;;;;;;;;;;6271915;22;20023;-85
2022/08/18 07:24:18;;;;;;;22.50;4.93;;;;;;;;;;6300233;22;20041;-85
2022/08/18 07:27:02;;;;;;;20.98;4.63;;;;;;;;;;6263530;22;20003;-85
2022/08/18 07:29:30;;;;;;;18.10;5.07;;;;;;;;;;6267811;22;20034;-86
2022/08/18 07:31:57;;;;;;;21.98;4.60;;;;;;;;;;6273074;22;20451;-85
2022/08/18 07:34:26;;;;;;;21.13;4.72;;;;;;;;;;6271107;22;20061;-85
2022/08/18 07:37:01;;;;;;;12.82;4.45;;;;;;;;;;6275267;22;20003;-84
2022/08/18 07:39:31;;;;;;;17.25;4.38;;;;;;;;;;6271880;22;20427;-84
2022/08/18 07:42:17;;;;;;;20.77;3.95;;;;;;;;;;6272629;22;20038;-85
2022/08/18 07:44:43;;;;;;;11.73;3.90;;;;;;;;;;6271219;22;20011;-85
2022/08/18 07:47:18;;;;;;;12.68;4.07;;;;;;;;;;6272661;22;20011;-85
2022/08/18 07:49:46;;;;;;;17.15;4.38;;;;;;;;;;6272112;22;20063;-85
2022/08/18 07:52:24;;;;;;;12.80;3.42;;;;;;;;;;6274078;22;20381;-84
2022/08/18 07:54:50;;;;;;;17.00;4.05;;;;;;;;;;6272361;22;20007;-85
2022/08/18 07:57:41;;;;;;;13.55;3.50;;;;;;;;;;6273834;22;20319;-85
2022/08/18 08:00:40;;;;;;;15.52;3.38;;;;;;;;;;6271477;22;20014;-85
2022/08/18 08:03:25;;;;;;;6.43;2.67;;;;;;;;;;6189548;22;19999;-85
2022/08/18 08:05:57;;;;;;;10.63;2.90;;;;;;;;;;6272043;22;20008;-85
2022/08/18 08:08:29;;;;;;;12.95;2.80;;;;;;;;;;6273616;22;20056;-86
2022/08/18 08:10:59;;;;;;;12.32;3.08;;;;;;;;;;6299318;22;20006;-85
2022/08/18 08:13:38;;;;;;;8.93;2.83;;;;;;;;;;6271546;22;20573;-86
2022/08/18 08:16:14;;;;;;;7.43;3.20;;;;;;;;;;6273348;22;20060;-86
2022/08/18 08:18:52;;;;;;;9.43;2.88;;;;;;;;;;6273856;22;20300;-86
2022/08/18 08:21:19;;;;;;;14.10;2.42;;;;;;;;;;6272845;22;20010;-85
2022/08/18 08:23:48;;;;;;;7.43;2.65;;;;;;;;;;6273454;22;20009;-85
2022/08/18 08:26:21;;;;;;;14.50;5.60;;;;;;;;;;6273159;22;20011;-85
2022/08/18 08:29:05;;;;;;;10.88;3.35;;;;;;;;;;6272771;22;20011;-85
2022/08/18 08:31:53;;;;;;;3.58;2.40;;;;;;;;;;6273031;22;20340;-85
2022/08/18 08:34:24;;;;;;;6.55;2.22;;;;;;;;;;6267432;22;20347;-85
2022/08/18 08:36:54;;;;;;;11.90;2.85;;;;;;;;;;6269767;22;20004;-85
2022/08/18 08:39:31;;;;;;;7.47;2.42;;;;;;;;;;6269252;22;20000;-86
2022/08/18 08:42:20;;;;;;;7.22;3.30;;;;;;;;;;6266332;22;20014;-87
2022/08/18 08:44:50;;;;;;;4.63;2.35;;;;;;;;;;6266397;22;20050;-86
2022/08/18 08:47:19;;;;;;;8.98;2.50;;;;;;;;;;6267204;22;20451;-85
2022/08/18 08:49:48;;;;;;;7.95;3.28;;;;;;;;;;6265848;22;20072;-86
2022/08/18 08:52:17;;;;;;;11.48;3.75;;;;;;;;;;6265343;22;20095;-86
2022/08/18 08:54:49;;;;;;;9.88;3.38;;;;;;;;;;6266721;22;20031;-86
2022/08/18 08:57:17;;;;;;;9.65;2.05;;;;;;;;;;6264826;22;20235;-86
2022/08/18 08:59:48;;;;;;;6.57;3.08;;;;;;;;;;6266106;22;20382;-85
2022/08/18 09:02:25;;;;;;;7.63;2.55;;;;;;;;;;6267201;22;20007;-85
2022/08/18 09:04:54;;;;;;;4.65;2.35;;;;;;;;;;6267546;22;20012;-85
2022/08/18 09:07:32;;;;;;;10.85;2.30;;;;;;;;;;6265336;22;20244;-85
2022/08/18 09:10:17;;;;;;;7.28;2.42;;;;;;;;;;6266070;22;20011;-85
2022/08/18 09:12:49;;;;;;;6.28;2.90;;;;;;;;;;6266356;22;20034;-86
2022/08/18 09:15:15;;;;;;;9.75;2.50;;;;;;;;;;6267281;22;20099;-86
2022/08/18 09:17:49;;;;;;;10.77;2.72;;;;;;;;;;6265701;22;20358;-86
2022/08/18 09:20:26;;;;;;;7.75;3.70;;;;;;;;;;6265927;22;20504;-85
2022/08/18 09:23:18;;;;;;;9.35;2.38;;;;;;;;;;6264299;22;20355;-86
2022/08/18 09:25:46;;;;;;;10.68;2.42;;;;;;;;;;6259252;22;20066;-86
2022/08/18 09:28:12;;;;;;;7.68;2.85;;;;;;;;;;6265490;22;20419;-86
2022/08/18 09:30:38;;;;;;;7.28;2.47;;;;;;;;;;6264930;22;20011;-85
2022/08/18 09:33:14;;;;;;;8.15;2.22;;;;;;;;;;6279302;22;20232;-86
2022/08/18 09:35:47;;;;;;;5.28;2.20;;;;;;;;;;6299504;22;20423;-85
2022/08/18 09:44:08;;;;;;;7.57;2.63;;;;;;;;;;6299974;22;20018;-85
2022/08/18 09:46:46;;;;;;;4.30;2.13;;;;;;;;;;6299170;22;20030;-86
2022/08/18 09:49:21;;;;;;;4.57;2.15;;;;;;;;;;6271798;22;20007;-86
2022/08/18 09:51:49;;;;;;;5.45;2.10;;;;;;;;;;6271819;22;20069;-86
2022/08/18 09:54:17;;;;;;;5.30;2.20;;;;;;;;;;6269278;22;20007;-85
2022/08/18 09:56:49;;;;;;;6.80;1.98;;;;;;;;;;6269559;22;20359;-85
2022/08/18 09:59:35;;;;;;;7.75;2.35;;;;;;;;;;6269261;22;20011;-85
2022/08/18 10:02:05;;;;;;;5.72;2.05;;;;;;;;;;6298156;22;20019;-86
2022/08/18 10:04:47;;;;;;;8.32;1.98;;;;;;;;;;6269666;22;20007;-85
2022/08/18 10:07:34;;;;;;;6.35;2.50;;;;;;;;;;6269021;22;20507;-85
2022/08/18 10:10:06;;;;;;;6.57;1.83;;;;;;;;;;6269129;22;20307;-85
2022/08/18 10:12:38;;;;;;;6.35;1.63;;;;;;;;;;6269493;22;20014;-85
2022/08/18 10:15:26;;;;;;;5.82;1.83;;;;;;;;;;6269343;22;20010;-85
2022/08/18 10:18:03;;;;;;;4.63;1.80;;;;;;;;;;6269251;22;20008;-85
2022/08/18 10:20:47;;;;;;;1.90;1.38;;;;;;;;;;6298269;22;20006;-85
2022/08/18 10:23:33;;;;;;;4.65;1.95;;;;;;;;;;6271153;22;20352;-85
2022/08/18 10:25:59;;;;;;;8.02;2.42;;;;;;;;;;6266979;22;20011;-85
2022/08/18 10:28:46;;;;;;;7.93;2.05;;;;;;;;;;6297855;22;20003;-85
2022/08/18 10:31:12;;;;;;;6.15;1.50;;;;;;;;;;6297390;22;20010;-85
2022/08/18 10:33:56;;;;;;;4.30;1.83;;;;;;;;;;6269907;22;20521;-85
2022/08/18 10:36:36;;;;;;;6.38;1.92;;;;;;;;;;6270124;22;20014;-85
2022/08/18 10:39:05;;;;;;;4.95;1.60;;;;;;;;;;6297933;22;20011;-85
2022/08/18 10:41:31;;;;;;;8.43;2.40;;;;;;;;;;6272104;22;20003;-85
2022/08/18 10:43:59;;;;;;;10.13;2.28;;;;;;;;;;6269560;22;20046;-85
2022/08/18 10:46:31;;;;;;;4.38;1.98;;;;;;;;;;6268529;22;20509;-85
2022/08/18 10:49:20;;;;;;;6.15;2.38;;;;;;;;;;6298700;22;20004;-86
2022/08/18 10:51:46;;;;;;;6.30;2.10;;;;;;;;;;6270833;22;20443;-85
2022/08/18 10:54:17;;;;;;;6.63;2.35;;;;;;;;;;6267450;22;20007;-86
2022/08/18 10:56:53;;;;;;;6.18;2.20;;;;;;;;;;6299013;22;20130;-86
2022/08/18 10:59:19;;;;;;;;;;;;;;;;;;6269960;22;20007;-86
2022/08/18 11:01:48;;;;;;;5.90;2.10;;;;;;;;;;6270296;22;19899;-86
2022/08/18 11:04:20;;;;;;;3.90;2.03;;;;;;;;;;6270670;22;20003;-85
2022/08/18 11:06:50;;;;;;;4.53;1.88;;;;;;;;;;6272296;22;20390;-86
2022/08/18 11:09:32;;;;;;;4.72;2.25;;;;;;;;;;6270707;22;20015;-86
2022/08/18 11:11:59;;;;;;;7.43;2.25;;;;;;;;;;6272876;22;20011;-86
2022/08/18 11:14:46;;;;;;;4.35;1.80;;;;;;;;;;6271631;22;20015;-86
2022/08/18 11:17:21;;;;;;;10.52;2.47;;;;;;;;;;6271071;22;20007;-86
2022/08/18 11:19:48;;;;;;;4.40;1.88;;;;;;;;;;6271430;22;20339;-86
2022/08/18 11:22:24;;;;;;;4.47;1.77;;;;;;;;;;6271096;22;20011;-86
2022/08/18 11:24:51;;;;;;;5.45;1.90;;;;;;;;;;6271198;22;20438;-86
2022/08/18 11:27:28;;;;;;;3.75;1.80;;;;;;;;;;6270086;22;20450;-86
2022/08/18 11:29:54;;;;;;;5.68;2.17;;;;;;;;;;6272156;22;20126;-86
2022/08/18 11:32:26;;;;;;;6.35;2.35;;;;;;;;;;6269985;22;20011;-86
2022/08/18 11:34:59;;;;;;;10.05;2.17;;;;;;;;;;6237344;23;20015;-86
2022/08/18 11:37:55;;;;;;;8.05;2.30;;;;;;;;;;6237620;23;20004;-86
2022/08/18 11:40:24;;;;;;;5.40;2.17;;;;;;;;;;6205847;23;20054;-86
2022/08/18 11:42:56;;;;;;;6.30;2.00;;;;;;;;;;6212002;23;20507;-86
2022/08/18 11:45:23;;;;;;;7.95;2.78;;;;;;;;;;6236757;23;20008;-86
2022/08/18 11:48:18;;;;;;;8.27;2.35;;;;;;;;;;6211236;23;20220;-86
2022/08/18 11:51:07;;;;;;;4.43;1.92;;;;;;;;;;6204120;23;20511;-87
2022/08/18 11:53:49;;;;;;;4.03;2.20;;;;;;;;;;6239376;22;20036;-86
2022/08/18 11:56:15;;;;;;;3.85;1.85;;;;;;;;;;6235886;23;20004;-86
2022/08/18 11:58:44;;;;;;;3.17;1.95;;;;;;;;;;6235627;23;20010;-87
2022/08/18 12:01:10;;;;;;;3.60;2.00;;;;;;;;;;6237337;22;20098;-86
2022/08/18 12:03:45;;;;;;;6.13;1.83;;;;;;;;;;6237396;23;20097;-87
2022/08/18 12:06:14;;;;;;;5.05;2.35;;;;;;;;;;6235159;23;20074;-87
2022/08/18 12:08:55;;;;;;;6.38;1.67;;;;;;;;;;6211821;23;20506;-87
2022/08/18 12:11:22;;;;;;;2.95;1.67;;;;;;;;;;6237040;23;20015;-86
2022/08/18 12:13:57;;;;;;;3.95;1.60;;;;;;;;;;6235966;23;20008;-86
2022/08/18 12:16:33;;;;;;;2.33;1.67;;;;;;;;;;6236649;23;20012;-87
2022/08/18 12:18:59;;;;;;;3.78;1.58;;;;;;;;;;6237114;23;20459;-86
2022/08/18 12:21:25;;;;;;;5.00;1.60;;;;;;;;;;6237446;23;20010;-87
2022/08/18 12:23:51;;;;;;;6.47;1.98;;;;;;;;;;6235517;23;20036;-87
2022/08/18 12:26:18;;;;;;;1.55;1.45;;;;;;;;;;6234679;23;20019;-86
2022/08/18 12:28:43;;;;;;;5.70;2.00;;;;;;;;;;6236533;23;20536;-86
2022/08/18 12:31:09;;;;;;;6.55;1.60;;;;;;;;;;6234445;23;20008;-86
2022/08/18 12:33:36;;;;;;;5.68;1.80;;;;;;;;;;6256608;22;20011;-86
2022/08/18 12:36:03;;;;;;;2.15;1.77;;;;;;;;;;6272943;22;19999;-87
2022/08/18 12:38:29;;;;;;;6.32;2.08;;;;;;;;;;6272799;22;20010;-87
2022/08/18 12:40:55;;;;;;;3.17;1.70;;;;;;;;;;6270389;22;20003;-86
2022/08/18 12:43:22;;;;;;;4.43;2.17;;;;;;;;;;6297920;22;20011;-86
2022/08/18 12:45:48;;;;;;;3.15;1.90;;;;;;;;;;6270852;22;20009;-87
2022/08/18 12:48:14;;;;;;;3.85;1.90;;;;;;;;;;6300551;22;20308;-86
2022/08/18 12:50:40;;;;;;;3.65;1.80;;;;;;;;;;6270306;22;20454;-87
2022/08/18 12:53:06;;;;;;;4.60;1.90;;;;;;;;;;6271942;22;20007;-86
2022/08/18 12:55:34;;;;;;;4.40;1.65;;;;;;;;;;6273983;22;20003;-86
2022/08/18 12:58:00;;;;;;;2.28;1.55;;;;;;;;;;6274798;22;20008;-86
2022/08/18 13:00:35;;;;;;;6.32;1.65;;;;;;;;;;6300767;22;20833;-86
2022/08/18 13:03:01;;;;;;;2.05;1.60;;;;;;;;;;6274757;22;20451;-86
2022/08/18 13:05:28;;;;;;;3.85;1.75;;;;;;;;;;6274084;22;20015;-86
2022/08/18 13:07:57;;;;;;;3.03;1.42;;;;;;;;;;6275209;22;20011;-86
2022/08/18 13:10:23;;;;;;;4.05;1.90;;;;;;;;;;6274271;22;20011;-86
2022/08/18 13:12:49;;;;;;;4.55;2.00;;;;;;;;;;6299781;22;20390;-86
2022/08/18 13:15:15;;;;;;;4.05;1.70;;;;;;;;;;6272996;22;20034;-86
2022/08/18 13:17:41;;;;;;;3.90;2.15;;;;;;;;;;6272365;22;20003;-86
2022/08/18 13:20:09;;;;;;;2.63;1.83;;;;;;;;;;6272815;22;20525;-86
2022/08/18 13:22:39;;;;;;;5.93;2.15;;;;;;;;;;6271207;22;20015;-86
2022/08/18 13:25:06;;;;;;;5.20;1.95;;;;;;;;;;6271738;22;20008;-86
2022/08/18 14:08:43;;;;;;;2.58;1.80;;;;;;;;;;6260607;22;20021;-86
2022/08/18 14:11:09;;;;;;;2.83;1.98;;;;;;;;;;6233427;23;20444;-86
2022/08/18 14:13:38;;;;;;;2.47;1.50;;;;;;;;;;6234811;23;20059;-87
2022/08/18 14:16:04;;;;;;;3.42;1.77;;;;;;;;;;6234606;23;20034;-87
2022/08/18 14:18:30;;;;;;;4.72;1.73;;;;;;;;;;6263883;22;20012;-87
2022/08/18 14:29:10;;;;;;;3.40;1.70;;;;;;;;;;6258489;22;20086;-86
2022/08/18 14:42:27;;;;;;;3.80;2.08;;;;;;;;;;6215425;22;20532;-87
2022/08/18 14:44:54;;;;;;;1.65;1.50;;;;;;;;;;6247021;22;20503;-87
2022/08/18 14:47:20;;;;;;;2.45;1.48;;;;;;;;;;6247075;22;20018;-88
2022/08/18 14:49:46;;;;;;;4.20;1.42;;;;;;;;;;6272781;22;20007;-88
2022/08/18 14:52:12;;;;;;;3.33;1.70;;;;;;;;;;6275446;22;20014;-87
2022/08/18 14:54:38;;;;;;;2.38;1.77;;;;;;;;;;6274541;22;20014;-87
2022/08/18 14:57:08;;;;;;;3.60;1.50;;;;;;;;;;6270586;22;20027;-88
2022/08/18 14:59:34;;;;;;;1.55;1.45;;;;;;;;;;6274667;22;20014;-87
2022/08/18 15:02:00;;;;;;;1.65;1.52;;;;;;;;;;6274587;22;20003;-87
2022/08/18 15:04:29;;;;;;;3.72;1.73;;;;;;;;;;6248910;22;20011;-88
2022/08/18 15:06:55;;;;;;;1.92;1.40;;;;;;;;;;6272558;22;20327;-87
2022/08/18 15:09:21;;;;;;;4.20;1.90;;;;;;;;;;6250173;22;20026;-87
2022/08/18 15:11:49;;;;;;;5.45;2.20;;;;;;;;;;6274239;22;20022;-87
2022/08/18 15:14:16;;;;;;;2.60;1.55;;;;;;;;;;6247877;22;20007;-87
2022/08/18 15:16:42;;;;;;;4.68;1.73;;;;;;;;;;6273085;22;20071;-87
2022/08/18 15:19:08;;;;;;;2.13;1.80;;;;;;;;;;6248381;22;20011;-87
2022/08/18 15:27:04;;;;;;;1.95;1.63;;;;;;;;;;6279055;22;20045;-87
2022/08/18 15:29:30;;;;;;;3.70;1.52;;;;;;;;;;6250332;22;20088;-87
2022/08/18 15:31:57;;;;;;;1.88;1.48;;;;;;;;;;6275764;22;20003;-87
2022/08/18 15:34:24;;;;;;;2.08;1.40;;;;;;;;;;6273694;22;20046;-87
2022/08/18 15:36:51;;;;;;;3.13;1.80;;;;;;;;;;6249419;22;20003;-87
2022/08/18 15:39:18;;;;;;;9.00;3.28;;;;;;;;;;6300800;22;20055;-87
2022/08/18 15:41:47;;;;;;;5.97;1.95;;;;;;;;;;6276134;22;20015;-88
2022/08/18 15:44:15;;;;;;;3.00;1.70;;;;;;;;;;6274270;22;20335;-87
2022/08/18 15:46:41;;;;;;;5.38;2.83;;;;;;;;;;6274498;22;20008;-87
2022/08/18 15:49:07;;;;;;;7.88;2.30;;;;;;;;;;6275256;22;20132;-87
2022/08/18 15:51:34;;;;;;;2.10;1.58;;;;;;;;;;6273487;22;20012;-87
2022/08/18 15:54:00;;;;;;;2.53;1.48;;;;;;;;;;6250023;22;20510;-87
2022/08/18 15:56:27;;;;;;;2.67;1.45;;;;;;;;;;6273601;22;20003;-87
2022/08/18 15:58:53;;;;;;;3.58;2.10;;;;;;;;;;6303643;22;20424;-87
2022/08/18 16:01:20;;;;;;;2.65;1.65;;;;;;;;;;6274270;22;20007;-87
2022/08/18 16:03:47;;;;;;;4.97;1.83;;;;;;;;;;6273717;22;20009;-87
2022/08/18 16:06:14;;;;;;;2.65;1.50;;;;;;;;;;6300862;22;20434;-87
2022/08/18 16:08:40;;;;;;;2.85;1.85;;;;;;;;;;6273047;22;20729;-89
2022/08/18 16:11:11;;;;;;;2.80;1.83;;;;;;;;;;6250158;22;20512;-89
2022/08/18 16:13:37;;;;;;;3.33;2.13;;;;;;;;;;6275620;22;20011;-89
2022/08/18 16:16:10;;;;;;;1.80;1.10;;;;;;;;;;6275516;22;20063;-89
2022/08/18 16:18:36;;;;;;;3.42;1.23;;;;;;;;;;6276899;22;20035;-89
2022/08/18 16:21:03;;;;;;;2.35;1.50;;;;;;;;;;6275686;22;20037;-89